Time;durP1;ratioP1;P1;durP2;ratioP2;P2;SDS_P1;SDS_P2;PMS_P1;PMS_P2;Temp;Humidity;BMP_temperature;BMP_pressure;BME280_temperature;BME280_humidity;BME280_pressure;Samples;Min_cycle;Max_cycle;Signal;HPM_P1;HPM_P2
2021/01/04 00:01:44;;;;;;;2.00;0.20;;;18.50;41.80;;;;;;4996617;28;20073;-47
2021/01/04 00:04:15;;;;;;;1.00;0.52;;;18.50;41.70;;;;;;4999001;28;20053;-45
2021/01/04 00:07:00;;;;;;;1.10;0.20;;;18.50;41.80;;;;;;4994407;28;20062;-45
2021/01/04 00:09:43;;;;;;;1.33;0.20;;;18.50;41.80;;;;;;5005093;28;20037;-50
2021/01/04 00:12:28;;;;;;;0.70;0.40;;;18.50;41.90;;;;;;4991040;28;20046;-49
2021/01/04 00:14:58;;;;;;;1.08;0.30;;;18.50;42.20;;;;;;4992186;28;20096;-50
2021/01/04 00:17:44;;;;;;;1.73;0.10;;;18.40;41.80;;;;;;5004770;28;20019;-47
2021/01/04 00:20:29;;;;;;;0.80;0.20;;;18.50;41.90;;;;;;4989561;28;20058;-46
2021/01/04 00:23:25;;;;;;;0.68;0.35;;;18.40;41.90;;;;;;4994822;28;20025;-50
2021/01/04 00:26:08;;;;;;;0.93;0.30;;;18.40;41.80;;;;;;4996077;28;20054;-48
2021/01/04 00:28:37;;;;;;;0.45;0.17;;;18.50;41.90;;;;;;5005468;28;20076;-51
2021/01/04 00:31:20;;;;;;;1.52;0.10;;;18.40;41.80;;;;;;5000538;28;20026;-48
2021/01/04 00:33:54;;;;;;;0.25;0.10;;;18.40;41.90;;;;;;4993855;28;20404;-49
2021/01/04 00:36:29;;;;;;;0.80;0.17;;;18.40;41.70;;;;;;4999493;28;20057;-51
2021/01/04 00:39:23;;;;;;;0.65;0.28;;;18.40;41.70;;;;;;4998474;28;20042;-50
2021/01/04 00:41:58;;;;;;;0.60;0.20;;;18.40;41.70;;;;;;4998671;28;20025;-53
2021/01/04 00:45:00;;;;;;;0.30;0.10;;;18.40;41.70;;;;;;4995145;28;20054;-46
2021/01/04 00:47:43;;;;;;;1.77;0.30;;;18.40;41.80;;;;;;5003918;28;20535;-51
2021/01/04 00:50:21;;;;;;;0.40;0.20;;;18.30;41.70;;;;;;5002171;28;20110;-49
2021/01/04 00:53:08;;;;;;;0.50;0.20;;;18.30;41.70;;;;;;5004115;28;20034;-51
2021/01/04 00:55:51;;;;;;;0.75;0.20;;;18.30;41.70;;;;;;5000677;28;20027;-51
2021/01/04 00:58:47;;;;;;;0.30;0.10;;;18.30;41.70;;;;;;5002606;28;20105;-49
2021/01/04 01:01:26;;;;;;;0.65;0.13;;;18.30;41.80;;;;;;4990648;28;20454;-51
2021/01/04 01:04:03;;;;;;;0.50;0.10;;;18.30;41.80;;;;;;4992901;28;20040;-47
2021/01/04 01:06:44;;;;;;;0.40;0.20;;;18.30;41.70;;;;;;5002296;28;20500;-51
2021/01/04 01:09:11;;;;;;;0.32;0.10;;;18.30;41.70;;;;;;4999505;28;20026;-49
2021/01/04 01:11:51;;;;;;;0.50;0.20;;;18.30;41.80;;;;;;5003242;28;20037;-50
2021/01/04 01:14:20;;;;;;;0.63;0.20;;;18.30;41.80;;;;;;4996482;28;20514;-44
2021/01/04 01:17:14;;;;;;;0.85;0.20;;;18.20;41.80;;;;;;5007815;28;20535;-46
2021/01/04 01:19:47;;;;;;;1.13;0.17;;;18.20;41.80;;;;;;4997840;28;20033;-47
2021/01/04 01:22:20;;;;;;;0.47;0.15;;;18.30;41.70;;;;;;4997201;28;20030;-49
2021/01/04 01:24:46;;;;;;;0.47;0.20;;;18.30;41.80;;;;;;4993063;28;20033;-44
2021/01/04 01:27:33;;;;;;;0.20;0.10;;;18.20;41.70;;;;;;5005697;28;20510;-51
2021/01/04 01:30:26;;;;;;;0.85;0.15;;;18.20;41.60;;;;;;5003198;28;20491;-49
2021/01/04 01:33:36;;;;;;;0.50;0.20;;;18.20;41.70;;;;;;4999536;28;20168;-52
2021/01/04 01:36:13;;;;;;;1.38;0.40;;;18.20;41.70;;;;;;5006557;28;20034;-50
2021/01/04 01:39:11;;;;;;;1.13;0.20;;;18.20;41.70;;;;;;5000699;28;20037;-44
2021/01/04 01:41:56;;;;;;;0.60;0.13;;;18.20;41.60;;;;;;4993499;28;20672;-50
2021/01/04 01:44:30;;;;;;;0.55;0.20;;;18.20;41.50;;;;;;5006896;28;20068;-51
2021/01/04 01:47:02;;;;;;;0.30;0.10;;;18.20;41.70;;;;;;5005695;28;20058;-50
2021/01/04 01:49:48;;;;;;;1.75;0.28;;;18.20;41.70;;;;;;5013616;28;20494;-52
2021/01/04 01:52:32;;;;;;;0.22;0.10;;;18.20;41.70;;;;;;4992114;28;20105;-43
2021/01/04 01:55:15;;;;;;;0.80;0.10;;;18.20;41.60;;;;;;5011597;28;20029;-46
2021/01/04 01:58:02;;;;;;;0.40;0.10;;;18.20;41.60;;;;;;4999993;28;20044;-48
2021/01/04 02:00:59;;;;;;;0.40;0.17;;;18.10;41.70;;;;;;4993295;28;20595;-51
2021/01/04 02:03:38;;;;;;;0.52;0.10;;;18.10;41.50;;;;;;4995494;28;20495;-50
2021/01/04 02:06:10;;;;;;;0.35;0.10;;;18.10;41.50;;;;;;5008303;28;20049;-49
2021/01/04 02:08:47;;;;;;;0.30;0.10;;;18.10;41.60;;;;;;5008024;28;20128;-47
2021/01/04 02:11:35;;;;;;;0.85;0.10;;;18.10;41.60;;;;;;4999812;28;20069;-47
2021/01/04 02:14:08;;;;;;;0.40;0.10;;;18.10;41.50;;;;;;5007159;28;20086;-47
2021/01/04 02:16:40;;;;;;;0.70;0.10;;;18.10;41.60;;;;;;5006551;28;20188;-48
2021/01/04 02:19:35;;;;;;;0.30;0.10;;;18.10;41.50;;;;;;4997789;28;20034;-48
2021/01/04 02:22:43;;;;;;;1.10;0.20;;;18.10;41.50;;;;;;5001909;28;20049;-49
2021/01/04 02:25:09;;;;;;;0.10;0.08;;;18.10;41.70;;;;;;5004480;28;20038;-43
2021/01/04 02:27:41;;;;;;;0.40;0.20;;;18.10;41.50;;;;;;5003215;28;20038;-50
2021/01/04 02:30:07;;;;;;;0.73;0.10;;;18.10;41.50;;;;;;5002040;28;20034;-48
2021/01/04 02:32:33;;;;;;;0.40;0.20;;;18.10;41.50;;;;;;4993526;28;20447;-44
2021/01/04 02:34:59;;;;;;;0.20;0.10;;;18.10;41.40;;;;;;4994408;28;20026;-50
2021/01/04 02:37:26;;;;;;;0.30;0.10;;;18.10;41.50;;;;;;5009790;28;20121;-50
2021/01/04 02:39:58;;;;;;;0.40;0.10;;;18.10;41.50;;;;;;5011637;28;20033;-51
2021/01/04 02:42:33;;;;;;;0.30;0.10;;;18.10;41.60;;;;;;5005086;28;20034;-51
2021/01/04 02:45:03;;;;;;;1.50;0.10;;;18.00;41.40;;;;;;5008150;28;20091;-50
2021/01/04 02:47:41;;;;;;;0.40;0.10;;;18.00;41.50;;;;;;5011113;28;20030;-49
2021/01/04 02:51:04;;;;;;;0.30;0.10;;;18.00;41.60;;;;;;5008894;28;20049;-53
2021/01/04 02:53:38;;;;;;;0.32;0.10;;;18.00;41.60;;;;;;4957093;28;20086;-52
2021/01/04 02:56:31;;;;;;;0.40;0.10;;;18.00;41.60;;;;;;4960806;28;20508;-45
2021/01/04 02:59:21;;;;;;;0.38;0.10;;;18.00;41.50;;;;;;4997922;28;20105;-50
2021/01/04 03:02:10;;;;;;;0.40;0.10;;;18.00;41.50;;;;;;4995477;28;20574;-50
2021/01/04 03:04:37;;;;;;;0.30;0.10;;;18.00;41.50;;;;;;4998387;28;20033;-47
2021/01/04 03:07:09;;;;;;;0.30;0.10;;;18.00;41.50;;;;;;4996241;28;20033;-51
2021/01/04 03:09:35;;;;;;;0.30;0.10;;;18.00;41.40;;;;;;4998597;28;20060;-50
2021/01/04 03:12:06;;;;;;;0.43;0.10;;;18.00;41.50;;;;;;4998265;28;20295;-45
2021/01/04 03:14:56;;;;;;;1.63;0.10;;;18.00;41.50;;;;;;4990954;28;20045;-50
2021/01/04 03:17:40;;;;;;;0.40;0.10;;;18.00;41.40;;;;;;5003982;28;20503;-48
2021/01/04 03:20:10;;;;;;;1.10;0.10;;;18.00;41.50;;;;;;5003858;28;20077;-49
2021/01/04 03:22:37;;;;;;;0.30;0.10;;;18.00;41.50;;;;;;4999895;28;20027;-50
2021/01/04 03:25:04;;;;;;;0.25;0.10;;;18.00;41.50;;;;;;4989760;28;20033;-49
2021/01/04 03:27:32;;;;;;;0.38;0.10;;;18.00;41.50;;;;;;5053857;23;20479;-42
2021/01/04 03:29:58;;;;;;;0.30;0.10;;;18.00;41.60;;;;;;5050406;28;20086;-44
2021/01/04 03:32:24;;;;;;;2.35;0.10;;;17.90;41.60;;;;;;5050588;28;20033;-44
2021/01/04 03:34:50;;;;;;;0.40;0.00;;;17.90;41.40;;;;;;5083527;28;20556;-42
2021/01/04 03:37:16;;;;;;;0.20;0.00;;;17.90;41.50;;;;;;5051599;28;20188;-40
2021/01/04 03:39:42;;;;;;;0.40;0.13;;;17.90;41.50;;;;;;5033356;28;20151;-42
2021/01/04 03:42:08;;;;;;;0.20;0.10;;;17.90;41.50;;;;;;5031440;28;20036;-44
2021/01/04 03:44:34;;;;;;;0.13;0.00;;;17.90;41.50;;;;;;5032332;28;20029;-44
2021/01/04 03:46:59;;;;;;;0.30;0.10;;;17.90;41.50;;;;;;5035086;28;20530;-43
2021/01/04 03:49:25;;;;;;;0.20;0.00;;;17.90;41.60;;;;;;5035587;28;20044;-46
2021/01/04 03:51:56;;;;;;;0.75;0.10;;;17.90;41.50;;;;;;5031811;28;20036;-44
2021/01/04 03:54:23;;;;;;;0.40;0.10;;;17.90;41.40;;;;;;5030994;28;20501;-43
2021/01/04 03:56:48;;;;;;;0.40;0.15;;;17.90;41.40;;;;;;5031920;28;20049;-43
2021/01/04 03:59:15;;;;;;;0.32;0.10;;;17.90;41.60;;;;;;5030828;28;20425;-43
2021/01/04 04:01:51;;;;;;;0.10;0.00;;;17.90;41.60;;;;;;5030199;28;20179;-45
2021/01/04 04:04:18;;;;;;;0.45;0.10;;;17.90;41.60;;;;;;5031978;28;20394;-41
2021/01/04 04:06:43;;;;;;;0.13;0.00;;;17.90;41.50;;;;;;5034115;28;20021;-43
2021/01/04 04:09:10;;;;;;;0.20;0.10;;;17.90;41.40;;;;;;5029769;28;20041;-44
2021/01/04 04:11:36;;;;;;;0.50;0.10;;;17.90;41.40;;;;;;5031461;28;20142;-44
2021/01/04 04:14:02;;;;;;;0.30;0.10;;;17.90;41.50;;;;;;5030597;28;20041;-44
2021/01/04 04:16:28;;;;;;;0.47;0.10;;;17.80;41.40;;;;;;5030824;28;20146;-43
2021/01/04 04:18:53;;;;;;;0.30;0.10;;;17.80;41.50;;;;;;5030523;28;20522;-41
2021/01/04 04:21:19;;;;;;;0.10;0.00;;;17.90;41.50;;;;;;5031240;28;20079;-45
2021/01/04 04:23:44;;;;;;;0.40;0.10;;;17.80;41.40;;;;;;5031408;28;20030;-43
2021/01/04 04:26:22;;;;;;;0.38;0.10;;;17.90;41.40;;;;;;5037516;28;20104;-44
2021/01/04 04:28:48;;;;;;;0.43;0.10;;;17.80;41.40;;;;;;5026362;28;20068;-43
2021/01/04 04:31:14;;;;;;;0.30;0.10;;;17.90;41.50;;;;;;5046314;28;20500;-44
2021/01/04 04:33:41;;;;;;;0.32;0.10;;;17.80;41.40;;;;;;5042078;28;20044;-41
2021/01/04 04:36:09;;;;;;;0.60;0.10;;;17.80;41.40;;;;;;5044614;28;20514;-42
2021/01/04 04:38:35;;;;;;;0.22;0.10;;;17.80;41.40;;;;;;5035183;28;20101;-42
2021/01/04 04:41:00;;;;;;;0.30;0.10;;;17.80;41.50;;;;;;5030646;28;20462;-43
2021/01/04 04:43:32;;;;;;;0.20;0.08;;;17.80;41.60;;;;;;5038372;28;20484;-45
2021/01/04 04:45:58;;;;;;;0.30;0.10;;;17.80;41.40;;;;;;5045810;28;20056;-43
2021/01/04 04:48:51;;;;;;;0.30;0.10;;;17.80;41.40;;;;;;5022980;28;20050;-43
2021/01/04 04:51:40;;;;;;;0.40;0.10;;;17.80;41.40;;;;;;5042440;28;20033;-45
2021/01/04 04:54:20;;;;;;;0.13;0.10;;;17.80;41.50;;;;;;5032835;28;20478;-44
2021/01/04 04:57:03;;;;;;;0.45;0.20;;;17.80;41.50;;;;;;5033706;28;20022;-42
2021/01/04 04:59:45;;;;;;;0.60;0.05;;;17.80;41.50;;;;;;5033686;28;20649;-44
2021/01/04 05:02:38;;;;;;;0.20;0.10;;;17.70;41.40;;;;;;5038110;28;20210;-42
2021/01/04 05:05:37;;;;;;;0.30;0.10;;;17.80;41.40;;;;;;5038919;28;20029;-44
2021/01/04 05:08:15;;;;;;;0.40;0.10;;;17.80;41.60;;;;;;5030110;28;20046;-44
2021/01/04 05:10:43;;;;;;;0.20;0.10;;;17.80;41.40;;;;;;5034258;28;20021;-44
2021/01/04 05:13:23;;;;;;;0.10;0.10;;;17.80;41.60;;;;;;5030417;28;20514;-43
2021/01/04 05:15:52;;;;;;;0.80;0.10;;;17.80;41.60;;;;;;5040673;28;20168;-44
2021/01/04 05:18:35;;;;;;;0.20;0.05;;;17.70;41.50;;;;;;5035781;28;20033;-47
2021/01/04 05:21:11;;;;;;;0.10;0.00;;;17.70;41.50;;;;;;5034003;28;20387;-44
2021/01/04 05:23:40;;;;;;;0.30;0.10;;;17.70;41.40;;;;;;5039673;28;20029;-44
2021/01/04 05:26:22;;;;;;;0.40;0.15;;;17.70;41.50;;;;;;5037219;28;20041;-44
2021/01/04 05:29:18;;;;;;;0.22;0.00;;;17.70;41.50;;;;;;5050511;28;20576;-45
2021/01/04 05:32:24;;;;;;;0.30;0.10;;;17.70;41.60;;;;;;5037415;28;20514;-45
2021/01/04 05:34:57;;;;;;;0.25;0.10;;;17.70;41.60;;;;;;5008078;28;20041;-43
2021/01/04 05:37:39;;;;;;;0.20;0.10;;;17.70;41.60;;;;;;5040852;28;20171;-42
2021/01/04 05:40:05;;;;;;;;;;;17.70;41.60;;;;;;5050719;28;20037;-43
2021/01/04 05:42:58;;;;;;;0.30;0.10;;;17.70;41.60;;;;;;5034916;28;20597;-42
2021/01/04 05:45:36;;;;;;;0.22;0.10;;;17.70;41.70;;;;;;5033843;28;20045;-43
2021/01/04 05:48:17;;;;;;;0.20;0.10;;;17.80;41.90;;;;;;5031386;28;20701;-42
2021/01/04 05:51:12;;;;;;;0.20;0.00;;;17.90;41.60;;;;;;5032283;28;20033;-41
2021/01/04 05:53:39;;;;;;;0.40;0.10;;;18.10;41.30;;;;;;5052163;28;20029;-45
2021/01/04 05:56:05;;;;;;;0.20;0.00;;;18.20;41.00;;;;;;5034862;28;20486;-43
2021/01/04 05:58:34;;;;;;;0.30;0.10;;;18.30;40.90;;;;;;5034902;28;20075;-40
2021/01/04 06:01:11;;;;;;;0.10;0.00;;;18.40;40.80;;;;;;5040811;28;20107;-41
2021/01/04 06:03:37;;;;;;;0.25;0.10;;;18.50;40.70;;;;;;5045460;28;20060;-40
2021/01/04 06:06:21;;;;;;;0.20;0.10;;;18.50;40.60;;;;;;5052908;28;20083;-43
2021/01/04 06:08:47;;;;;;;0.20;0.10;;;18.50;40.60;;;;;;5040755;28;20033;-41
2021/01/04 06:11:14;;;;;;;0.25;0.10;;;18.60;40.50;;;;;;5037399;28;20041;-42
2021/01/04 06:13:43;;;;;;;0.25;0.10;;;18.70;40.50;;;;;;5033510;28;20080;-43
2021/01/04 06:16:15;;;;;;;0.32;0.10;;;18.70;40.40;;;;;;5034402;28;20458;-44
2021/01/04 06:18:48;;;;;;;;;;;18.80;40.40;;;;;;5042325;28;20544;-43
2021/01/04 06:21:52;;;;;;;0.30;0.00;;;18.80;40.30;;;;;;5041888;28;19965;-42
2021/01/04 06:24:31;;;;;;;0.20;0.00;;;18.90;40.20;;;;;;4951261;28;20031;-42
2021/01/04 06:27:09;;;;;;;0.10;0.00;;;18.90;40.20;;;;;;5031580;28;20051;-42
2021/01/04 06:29:41;;;;;;;0.10;0.00;;;18.90;40.20;;;;;;5033447;28;20556;-40
2021/01/04 06:32:26;;;;;;;0.10;0.00;;;19.00;40.20;;;;;;5046332;28;20040;-43
2021/01/04 06:34:55;;;;;;;0.20;0.00;;;19.00;40.20;;;;;;5019573;28;20619;-45
2021/01/04 06:37:25;;;;;;;0.30;0.00;;;19.00;40.20;;;;;;5033851;28;20029;-44
2021/01/04 06:40:29;;;;;;;0.20;0.10;;;19.00;40.30;;;;;;5032501;28;20025;-42
2021/01/04 06:42:55;;;;;;;0.15;0.00;;;19.00;40.20;;;;;;5035286;28;20462;-43
2021/01/04 06:45:46;;;;;;;0.20;0.10;;;19.10;40.20;;;;;;5043141;28;20026;-45
2021/01/04 06:48:18;;;;;;;0.10;0.00;;;19.10;40.20;;;;;;4986816;28;20033;-44
2021/01/04 06:51:31;;;;;;;0.20;0.10;;;19.10;40.20;;;;;;5032733;28;20227;-42
2021/01/04 06:54:14;;;;;;;0.20;0.00;;;19.20;40.20;;;;;;4959857;28;20047;-44
2021/01/04 06:57:07;;;;;;;0.20;0.10;;;19.20;40.10;;;;;;5041205;28;20037;-42
2021/01/04 06:59:58;;;;;;;0.35;0.08;;;19.20;40.10;;;;;;5028706;28;20031;-44
2021/01/04 07:03:04;;;;;;;0.10;0.00;;;19.20;40.10;;;;;;5033593;28;20104;-45
2021/01/04 07:05:46;;;;;;;0.20;0.00;;;19.30;40.20;;;;;;5046263;28;20044;-43
2021/01/04 07:08:33;;;;;;;0.10;0.00;;;19.30;40.20;;;;;;5036368;28;20032;-42
2021/01/04 07:11:07;;;;;;;0.40;0.10;;;19.30;40.10;;;;;;5026130;28;20037;-43
2021/01/04 07:13:50;;;;;;;0.17;0.00;;;19.30;40.20;;;;;;5047814;28;20041;-43
2021/01/04 07:16:16;;;;;;;0.17;0.00;;;19.30;40.20;;;;;;5031295;28;20032;-42
2021/01/04 07:18:44;;;;;;;0.28;0.00;;;19.30;40.20;;;;;;5031662;28;20033;-43
2021/01/04 07:21:19;;;;;;;0.15;0.00;;;19.40;40.20;;;;;;5031733;28;20029;-43
2021/01/04 07:24:01;;;;;;;0.20;0.00;;;19.40;40.10;;;;;;5031933;28;20021;-41
2021/01/04 07:26:40;;;;;;;0.13;0.00;;;19.50;40.10;;;;;;5034061;28;20821;-43
2021/01/04 07:29:40;;;;;;;0.30;0.08;;;19.50;40.10;;;;;;5031585;28;20029;-42
2021/01/04 07:32:11;;;;;;;1.00;0.10;;;19.50;40.10;;;;;;5037149;28;20088;-42
2021/01/04 07:34:47;;;;;;;0.28;0.00;;;19.50;40.20;;;;;;5034349;28;20103;-42
2021/01/04 07:37:37;;;;;;;0.20;0.10;;;19.40;40.20;;;;;;5034333;28;20045;-44
2021/01/04 07:40:35;;;;;;;0.30;0.00;;;19.40;40.20;;;;;;5019255;28;20037;-40
2021/01/04 07:43:09;;;;;;;0.28;0.10;;;19.40;40.30;;;;;;5027568;28;20033;-43
2021/01/04 07:45:59;;;;;;;0.40;0.10;;;19.40;40.30;;;;;;5042975;28;20034;-43
2021/01/04 07:48:44;;;;;;;0.20;0.10;;;19.30;40.40;;;;;;5031213;28;20049;-45
2021/01/04 07:51:36;;;;;;;0.30;0.10;;;19.30;40.40;;;;;;5029190;28;20112;-44
2021/01/04 07:54:34;;;;;;;0.20;0.10;;;19.20;40.60;;;;;;5037116;28;20029;-42
2021/01/04 07:57:27;;;;;;;0.30;0.10;;;19.20;40.80;;;;;;5042414;28;20144;-44
2021/01/04 08:00:10;;;;;;;0.30;0.10;;;19.10;40.90;;;;;;5030991;28;20030;-45
2021/01/04 08:03:13;;;;;;;0.77;0.10;;;19.10;41.00;;;;;;5030567;28;20025;-41
2021/01/04 08:05:59;;;;;;;0.20;0.10;;;19.10;41.00;;;;;;5030628;28;20026;-44
2021/01/04 08:09:05;;;;;;;0.77;0.10;;;19.00;40.90;;;;;;5036739;28;20029;-42
2021/01/04 08:11:54;;;;;;;0.40;0.10;;;19.00;41.00;;;;;;5020263;28;20060;-42
2021/01/04 08:14:42;;;;;;;0.30;0.10;;;19.00;40.90;;;;;;5031219;28;20036;-46
2021/01/04 08:17:19;;;;;;;1.02;0.10;;;19.10;40.70;;;;;;5030405;28;20619;-42
2021/01/04 08:19:47;;;;;;;0.20;0.10;;;19.20;40.70;;;;;;5024722;28;20493;-43
2021/01/04 08:22:50;;;;;;;0.38;0.10;;;19.30;40.40;;;;;;5030445;28;20434;-45
2021/01/04 08:25:37;;;;;;;0.25;0.10;;;19.30;40.20;;;;;;5030565;28;20084;-43
2021/01/04 08:28:17;;;;;;;0.40;0.10;;;19.40;40.10;;;;;;5030318;28;20399;-44
2021/01/04 08:30:57;;;;;;;0.45;0.10;;;19.50;40.00;;;;;;5030994;28;20556;-44
2021/01/04 08:33:41;;;;;;;0.60;0.10;;;19.50;40.00;;;;;;5030573;28;20080;-41
2021/01/04 08:36:27;;;;;;;0.50;0.10;;;19.50;39.90;;;;;;5032835;28;20474;-46
2021/01/04 08:39:14;;;;;;;0.28;0.10;;;19.60;39.80;;;;;;5035887;28;20459;-44
2021/01/04 08:41:42;;;;;;;0.47;0.10;;;19.60;39.80;;;;;;5023273;28;20037;-44
2021/01/04 08:44:20;;;;;;;0.45;0.20;;;19.70;39.70;;;;;;5037615;28;20056;-46
2021/01/04 08:46:46;;;;;;;1.63;0.20;;;19.80;39.60;;;;;;5032877;28;20052;-45
2021/01/04 08:49:19;;;;;;;0.55;0.20;;;19.90;39.60;;;;;;5030014;28;20116;-47
2021/01/04 08:51:47;;;;;;;1.05;0.30;;;19.90;39.50;;;;;;5038843;28;20084;-47
2021/01/04 08:54:13;;;;;;;0.73;0.17;;;20.00;39.50;;;;;;5038469;28;20033;-46
2021/01/04 08:56:42;;;;;;;0.70;0.20;;;20.00;39.60;;;;;;5036929;28;20040;-45
2021/01/04 08:59:14;;;;;;;0.95;0.20;;;20.00;39.50;;;;;;5036418;28;20112;-44
2021/01/04 09:01:47;;;;;;;;;;;19.90;39.60;;;;;;5048365;28;20083;-46
2021/01/04 09:04:25;;;;;;;0.40;0.20;;;19.90;39.70;;;;;;5037188;28;19984;-44
2021/01/04 09:07:01;;;;;;;4.10;0.30;;;19.90;39.70;;;;;;5039096;28;20083;-45
2021/01/04 09:09:34;;;;;;;1.27;0.45;;;19.90;39.70;;;;;;5039606;28;20486;-44
2021/01/04 09:12:08;;;;;;;2.22;0.50;;;20.00;39.60;;;;;;5034175;28;20037;-45
2021/01/04 09:14:47;;;;;;;2.67;0.30;;;20.00;39.50;;;;;;5042338;28;20497;-44
2021/01/04 09:17:22;;;;;;;0.50;0.30;;;20.10;39.50;;;;;;5037038;28;20048;-43
2021/01/04 09:19:59;;;;;;;1.38;0.38;;;20.10;39.50;;;;;;5026163;28;20108;-44
2021/01/04 09:22:25;;;;;;;0.68;0.22;;;20.10;39.50;;;;;;5031190;28;20359;-43
2021/01/04 09:24:51;;;;;;;1.17;0.57;;;20.10;39.50;;;;;;5048157;28;20033;-44
2021/01/04 09:27:32;;;;;;;1.73;0.40;;;20.10;39.50;;;;;;5036515;23;20049;-48
2021/01/04 09:30:02;;;;;;;0.70;0.40;;;20.10;39.60;;;;;;5008667;28;20033;-46
2021/01/04 09:32:35;;;;;;;1.35;0.40;;;20.00;39.60;;;;;;5007219;28;20049;-47
2021/01/04 09:35:03;;;;;;;2.58;0.73;;;20.00;39.70;;;;;;5001720;28;20045;-51
2021/01/04 09:37:29;;;;;;;2.50;0.40;;;20.00;39.90;;;;;;4995862;28;20654;-52
2021/01/04 09:40:06;;;;;;;1.27;0.47;;;20.00;39.90;;;;;;4986828;28;20038;-53
2021/01/04 09:42:31;;;;;;;1.45;0.60;;;20.00;39.90;;;;;;4985747;28;20029;-51
2021/01/04 09:45:18;;;;;;;1.55;0.60;;;20.00;40.00;;;;;;4978563;28;20598;-46
2021/01/04 09:47:46;;;;;;;1.17;0.57;;;20.00;40.10;;;;;;4974076;28;20026;-51
2021/01/04 09:50:27;;;;;;;1.60;0.50;;;20.00;40.20;;;;;;4989214;28;20170;-47
2021/01/04 09:53:20;;;;;;;2.97;0.80;;;19.90;40.30;;;;;;4989167;28;20807;-48
2021/01/04 09:55:47;;;;;;;1.38;0.60;;;19.90;40.40;;;;;;4991760;28;20085;-49
2021/01/04 09:58:17;;;;;;;3.92;0.50;;;19.90;40.60;;;;;;4987602;28;20499;-52
2021/01/04 10:00:42;;;;;;;2.00;0.68;;;19.90;40.50;;;;;;4986774;28;20038;-51
2021/01/04 10:03:22;;;;;;;1.70;0.60;;;19.90;40.60;;;;;;4982287;28;20041;-50
2021/01/04 10:05:50;;;;;;;4.35;1.45;;;19.90;40.50;;;;;;4988925;28;20330;-51
2021/01/04 10:08:20;;;;;;;2.35;0.88;;;19.90;40.60;;;;;;4991807;28;20655;-51
2021/01/04 10:11:07;;;;;;;2.45;0.80;;;19.90;40.70;;;;;;4987441;28;20094;-51
2021/01/04 10:13:37;;;;;;;2.67;1.25;;;19.90;40.80;;;;;;4988458;28;20099;-52
2021/01/04 10:16:11;;;;;;;1.75;1.10;;;19.80;40.80;;;;;;4991136;28;20214;-47
2021/01/04 10:18:46;;;;;;;3.30;1.02;;;19.80;40.90;;;;;;4988892;28;20042;-49
2021/01/04 10:21:18;;;;;;;4.10;1.10;;;19.80;41.00;;;;;;4983865;28;20035;-49
2021/01/04 10:23:59;;;;;;;3.58;0.60;;;19.70;40.90;;;;;;4985123;28;20023;-50
2021/01/04 10:26:25;;;;;;;2.00;0.75;;;19.60;41.00;;;;;;4989997;28;20030;-44
2021/01/04 10:28:52;;;;;;;3.70;1.13;;;19.70;41.00;;;;;;4989052;28;20046;-47
2021/01/04 10:31:25;;;;;;;3.35;1.00;;;19.80;40.90;;;;;;4989418;28;20034;-49
2021/01/04 10:34:08;;;;;;;2.97;1.02;;;20.00;40.60;;;;;;4984554;28;20030;-50
2021/01/04 10:36:35;;;;;;;1.45;0.50;;;20.20;40.40;;;;;;4981899;28;20038;-47
2021/01/04 10:39:22;;;;;;;4.32;1.10;;;20.20;40.30;;;;;;4985251;28;20549;-53
2021/01/04 10:41:51;;;;;;;1.15;0.63;;;20.40;40.20;;;;;;4981798;28;20030;-48
2021/01/04 10:44:25;;;;;;;1.85;0.50;;;20.40;40.10;;;;;;4990120;28;20070;-49
2021/01/04 10:47:10;;;;;;;2.08;0.80;;;20.50;40.20;;;;;;4985331;28;20034;-47
2021/01/04 10:49:36;;;;;;;1.77;0.82;;;20.50;40.00;;;;;;4972642;28;20014;-45
2021/01/04 10:52:04;;;;;;;1.45;0.52;;;20.60;39.80;;;;;;4978511;28;20045;-48
2021/01/04 10:54:43;;;;;;;1.70;0.57;;;20.70;39.60;;;;;;4990401;28;20042;-46
2021/01/04 10:57:12;;;;;;;1.35;0.50;;;20.80;39.50;;;;;;4986233;28;20133;-44
2021/01/04 10:59:41;;;;;;;1.52;0.47;;;20.80;39.50;;;;;;4989418;28;20423;-47
2021/01/04 11:02:07;;;;;;;3.47;0.60;;;20.80;39.50;;;;;;4986244;28;20041;-44
2021/01/04 11:04:34;;;;;;;1.60;0.70;;;20.90;39.60;;;;;;4999164;28;20042;-53
2021/01/04 11:07:12;;;;;;;1.15;0.50;;;21.00;39.40;;;;;;4989709;28;20022;-45
2021/01/04 11:09:41;;;;;;;3.42;0.60;;;21.00;39.30;;;;;;4989795;28;20042;-51
2021/01/04 11:12:13;;;;;;;1.17;0.30;;;21.00;39.30;;;;;;4982529;28;20395;-46
2021/01/04 11:14:50;;;;;;;3.50;0.73;;;21.00;39.40;;;;;;4980258;28;20037;-50
2021/01/04 11:17:23;;;;;;;1.88;0.60;;;21.00;39.40;;;;;;4983772;28;20039;-46
2021/01/04 11:19:49;;;;;;;0.70;0.30;;;21.00;39.50;;;;;;4979352;28;20034;-45
2021/01/04 11:22:26;;;;;;;1.70;0.43;;;21.00;39.40;;;;;;4986820;28;20038;-49
2021/01/04 11:24:54;;;;;;;1.85;0.55;;;21.10;39.40;;;;;;4988703;28;20551;-48
2021/01/04 11:27:20;;;;;;;1.92;0.30;;;21.10;39.40;;;;;;4988202;28;20080;-51
2021/01/04 11:29:46;;;;;;;3.28;0.82;;;21.10;39.40;;;;;;4989213;28;20693;-46
2021/01/04 11:32:13;;;;;;;0.98;0.50;;;21.00;39.30;;;;;;4984028;28;20365;-50
2021/01/04 11:34:47;;;;;;;1.58;0.50;;;21.10;39.50;;;;;;4991433;28;20050;-49
2021/01/04 11:37:18;;;;;;;3.15;0.50;;;21.10;39.40;;;;;;4989502;28;20145;-50
2021/01/04 11:39:43;;;;;;;1.45;0.30;;;21.10;39.50;;;;;;4987907;28;20061;-48
2021/01/04 11:42:09;;;;;;;1.48;0.38;;;21.20;39.50;;;;;;4988432;28;20117;-50
2021/01/04 11:44:36;;;;;;;2.05;0.60;;;21.20;39.60;;;;;;4987395;28;20085;-51
2021/01/04 11:47:02;;;;;;;1.38;0.45;;;21.20;39.50;;;;;;4988928;28;20034;-43
2021/01/04 11:49:28;;;;;;;1.10;0.40;;;21.20;39.50;;;;;;4988595;28;20038;-48
2021/01/04 11:51:55;;;;;;;1.55;0.65;;;21.20;39.50;;;;;;4987738;28;20038;-53
2021/01/04 11:54:21;;;;;;;1.23;0.40;;;21.20;39.40;;;;;;4988589;28;20060;-51
2021/01/04 11:56:48;;;;;;;1.65;0.50;;;21.20;39.30;;;;;;4987776;28;20053;-54
2021/01/04 11:59:14;;;;;;;1.13;0.57;;;21.30;39.40;;;;;;4980197;28;20038;-52
2021/01/04 12:01:40;;;;;;;1.63;0.40;;;21.30;39.40;;;;;;4987035;28;20038;-49
2021/01/04 12:04:07;;;;;;;1.50;0.45;;;21.30;39.60;;;;;;4985496;28;20034;-46
2021/01/04 12:06:32;;;;;;;1.88;0.60;;;21.20;39.60;;;;;;4988136;28;20038;-46
2021/01/04 12:08:58;;;;;;;2.08;0.77;;;21.20;39.80;;;;;;4987304;28;20034;-48
2021/01/04 12:11:24;;;;;;;2.75;0.70;;;21.20;39.90;;;;;;4987383;28;20101;-47
2021/01/04 12:13:51;;;;;;;1.05;0.52;;;21.10;40.50;;;;;;4986414;28;20037;-46
2021/01/04 12:16:17;;;;;;;2.50;0.88;;;21.10;40.20;;;;;;4981002;28;20404;-50
2021/01/04 12:18:44;;;;;;;1.38;0.82;;;21.00;40.40;;;;;;4980836;28;20081;-47
2021/01/04 12:21:10;;;;;;;2.00;0.60;;;21.00;40.40;;;;;;4979791;28;20498;-50
2021/01/04 12:23:35;;;;;;;2.78;0.90;;;21.00;40.60;;;;;;4983353;28;20042;-48
2021/01/04 12:26:01;;;;;;;2.83;1.30;;;20.90;40.50;;;;;;4979627;28;20046;-52
2021/01/04 12:28:26;;;;;;;1.85;1.17;;;20.90;40.40;;;;;;4982217;28;20026;-52
2021/01/04 12:30:52;;;;;;;1.48;0.95;;;20.90;40.50;;;;;;4985766;28;20625;-55
2021/01/04 12:33:18;;;;;;;1.85;0.85;;;20.80;40.50;;;;;;4985657;28;20031;-48
2021/01/04 12:35:43;;;;;;;6.10;1.77;;;20.70;40.40;;;;;;4986408;28;20042;-52
2021/01/04 12:38:09;;;;;;;2.47;1.48;;;20.70;40.50;;;;;;4983166;28;20034;-53
2021/01/04 12:40:35;;;;;;;2.60;1.50;;;20.70;40.60;;;;;;4985677;28;20523;-56
2021/01/04 12:43:02;;;;;;;1.48;1.33;;;20.80;40.70;;;;;;4980519;28;20165;-59
2021/01/04 12:45:29;;;;;;;3.75;1.65;;;20.70;40.70;;;;;;4986021;28;20172;-53
2021/01/04 12:47:54;;;;;;;3.08;1.60;;;20.70;40.80;;;;;;4986782;28;20403;-45
2021/01/04 12:50:20;;;;;;;2.75;1.48;;;20.70;40.90;;;;;;4989717;28;20039;-47
2021/01/04 12:52:47;;;;;;;3.42;1.77;;;20.70;41.00;;;;;;4985188;28;20046;-47
2021/01/04 12:55:13;;;;;;;3.05;1.40;;;20.70;40.90;;;;;;4984206;28;20034;-53
2021/01/04 12:57:38;;;;;;;1.75;1.20;;;20.80;40.80;;;;;;4974167;28;20047;-50
2021/01/04 13:00:07;;;;;;;1.73;1.30;;;20.90;40.70;;;;;;4980721;28;20049;-54
2021/01/04 13:02:32;;;;;;;1.48;1.10;;;20.90;40.60;;;;;;4979807;28;20033;-56
2021/01/04 13:04:58;;;;;;;1.80;0.98;;;20.90;40.40;;;;;;4979043;28;20053;-53
2021/01/04 13:07:24;;;;;;;3.17;1.10;;;21.00;40.40;;;;;;4985012;28;20501;-52
2021/01/04 13:09:51;;;;;;;2.10;1.23;;;21.00;40.30;;;;;;4978201;28;20089;-51
2021/01/04 13:12:16;;;;;;;2.20;0.85;;;21.10;40.20;;;;;;4980015;28;20041;-52
2021/01/04 13:14:46;;;;;;;1.55;1.00;;;21.10;40.10;;;;;;4999875;28;20111;-53
2021/01/04 13:17:13;;;;;;;1.45;1.02;;;21.10;40.00;;;;;;4975736;28;20058;-53
2021/01/04 13:19:38;;;;;;;1.30;1.02;;;21.10;40.00;;;;;;4981870;28;20037;-55
2021/01/04 13:22:04;;;;;;;1.08;0.93;;;21.10;39.90;;;;;;4973065;28;20106;-53
2021/01/04 13:24:29;;;;;;;2.33;0.82;;;21.20;39.90;;;;;;4977154;28;20038;-54
2021/01/04 13:26:56;;;;;;;1.40;1.00;;;21.20;39.90;;;;;;4981150;28;20163;-55
2021/01/04 13:29:28;;;;;;;2.58;0.88;;;21.20;39.90;;;;;;4984319;28;20096;-52
2021/01/04 13:32:00;;;;;;;1.00;0.70;;;21.20;39.90;;;;;;4979755;28;21041;-53